sensor_id;sensor_type;location;lat;lon;timestamp;pressure;altitude;pressure_sealevel;temperature;humidity
64844;BME280;51310;52.198;5.422;2023-04-03T00:01:00;102874.81;;;1.22;100.00
64844;BME280;51310;52.198;5.422;2023-04-03T00:03:26;102881.13;;;1.14;100.00
64844;BME280;51310;52.198;5.422;2023-04-03T00:05:52;102878.41;;;1.03;100.00
64844;BME280;51310;52.198;5.422;2023-04-03T00:08:18;102880.28;;;0.89;100.00
64844;BME280;51310;52.198;5.422;2023-04-03T00:10:44;102886.34;;;0.95;100.00
64844;BME280;51310;52.198;5.422;2023-04-03T00:13:10;102883.19;;;0.86;100.00
64844;BME280;51310;52.198;5.422;2023-04-03T00:15:38;102881.56;;;0.71;100.00
64844;BME280;51310;52.198;5.422;2023-04-03T00:18:04;102879.22;;;0.67;100.00
64844;BME280;51310;52.198;5.422;2023-04-03T00:20:31;102876.34;;;0.75;100.00
64844;BME280;51310;52.198;5.422;2023-04-03T00:22:57;102882.38;;;0.91;100.00
64844;BME280;51310;52.198;5.422;2023-04-03T00:25:23;102879.00;;;0.96;100.00
64844;BME280;51310;52.198;5.422;2023-04-03T00:27:49;102880.44;;;0.85;100.00
64844;BME280;51310;52.198;5.422;2023-04-03T00:30:18;102889.13;;;0.81;100.00
64844;BME280;51310;52.198;5.422;2023-04-03T00:32:44;102886.25;;;0.74;100.00
64844;BME280;51310;52.198;5.422;2023-04-03T00:35:10;102890.34;;;0.73;100.00
64844;BME280;51310;52.198;5.422;2023-04-03T00:37:36;102884.91;;;0.76;100.00
64844;BME280;51310;52.198;5.422;2023-04-03T00:40:05;102886.59;;;0.81;100.00
64844;BME280;51310;52.198;5.422;2023-04-03T00:42:31;102890.63;;;0.75;100.00
64844;BME280;51310;52.198;5.422;2023-04-03T00:47:24;102897.91;;;0.83;100.00
64844;BME280;51310;52.198;5.422;2023-04-03T00:49:52;102902.66;;;0.91;100.00
64844;BME280;51310;52.198;5.422;2023-04-03T00:52:22;102903.41;;;0.80;100.00
64844;BME280;51310;52.198;5.422;2023-04-03T00:54:52;102896.56;;;0.85;100.00
64844;BME280;51310;52.198;5.422;2023-04-03T00:57:22;102898.75;;;0.78;100.00
64844;BME280;51310;52.198;5.422;2023-04-03T00:59:57;102904.78;;;0.69;100.00
64844;BME280;51310;52.198;5.422;2023-04-03T01:02:25;102904.75;;;0.78;100.00
64844;BME280;51310;52.198;5.422;2023-04-03T01:04:51;102893.00;;;0.79;100.00
64844;BME280;51310;52.198;5.422;2023-04-03T01:07:26;102897.03;;;0.73;100.00
64844;BME280;51310;52.198;5.422;2023-04-03T01:09:58;102902.25;;;0.69;100.00
64844;BME280;51310;52.198;5.422;2023-04-03T01:12:30;102900.97;;;0.61;100.00
64844;BME280;51310;52.198;5.422;2023-04-03T01:14:59;102900.72;;;0.59;100.00
64844;BME280;51310;52.198;5.422;2023-04-03T01:17:40;102903.22;;;0.69;100.00
64844;BME280;51310;52.198;5.422;2023-04-03T01:25:53;102899.53;;;0.57;100.00
64844;BME280;51310;52.198;5.422;2023-04-03T01:28:30;102897.03;;;0.73;100.00
64844;BME280;51310;52.198;5.422;2023-04-03T01:31:27;102907.13;;;0.82;100.00
64844;BME280;51310;52.198;5.422;2023-04-03T01:33:55;102907.00;;;0.77;100.00
64844;BME280;51310;52.198;5.422;2023-04-03T01:36:29;102899.56;;;0.73;100.00
64844;BME280;51310;52.198;5.422;2023-04-03T01:38:57;102907.16;;;0.73;100.00
64844;BME280;51310;52.198;5.422;2023-04-03T01:41:24;102902.22;;;0.78;100.00
64844;BME280;51310;52.198;5.422;2023-04-03T01:43:51;102901.22;;;0.63;100.00
64844;BME280;51310;52.198;5.422;2023-04-03T01:46:18;102899.00;;;0.79;100.00
64844;BME280;51310;52.198;5.422;2023-04-03T01:48:45;102901.19;;;0.72;100.00
64844;BME280;51310;52.198;5.422;2023-04-03T01:51:11;102898.38;;;0.71;100.00
64844;BME280;51310;52.198;5.422;2023-04-03T01:53:37;102896.16;;;0.63;100.00
64844;BME280;51310;52.198;5.422;2023-04-03T01:56:03;102903.03;;;0.73;100.00
64844;BME280;51310;52.198;5.422;2023-04-03T01:58:29;102904.38;;;0.71;100.00
64844;BME280;51310;52.198;5.422;2023-04-03T02:00:55;102903.50;;;0.61;100.00
64844;BME280;51310;52.198;5.422;2023-04-03T02:03:21;102899.66;;;0.53;100.00
64844;BME280;51310;52.198;5.422;2023-04-03T02:05:47;102902.94;;;0.68;100.00
64844;BME280;51310;52.198;5.422;2023-04-03T02:08:13;102905.34;;;0.62;100.00
64844;BME280;51310;52.198;5.422;2023-04-03T02:10:39;102900.59;;;0.54;100.00
64844;BME280;51310;52.198;5.422;2023-04-03T02:13:05;102913.19;;;0.48;100.00
64844;BME280;51310;52.198;5.422;2023-04-03T02:15:31;102907.84;;;0.47;100.00
64844;BME280;51310;52.198;5.422;2023-04-03T02:17:57;102911.41;;;0.53;100.00
64844;BME280;51310;52.198;5.422;2023-04-03T02:20:22;102925.06;;;0.44;100.00
64844;BME280;51310;52.198;5.422;2023-04-03T02:22:48;102914.72;;;0.57;100.00
64844;BME280;51310;52.198;5.422;2023-04-03T02:25:14;102915.41;;;0.56;100.00
64844;BME280;51310;52.198;5.422;2023-04-03T02:27:40;102909.94;;;0.49;100.00
64844;BME280;51310;52.198;5.422;2023-04-03T02:30:06;102907.41;;;0.49;100.00
64844;BME280;51310;52.198;5.422;2023-04-03T02:32:34;102911.13;;;0.61;100.00
64844;BME280;51310;52.198;5.422;2023-04-03T02:35:00;102914.44;;;0.56;100.00
64844;BME280;51310;52.198;5.422;2023-04-03T02:37:26;102909.72;;;0.48;100.00
64844;BME280;51310;52.198;5.422;2023-04-03T02:39:51;102915.06;;;0.39;100.00
64844;BME280;51310;52.198;5.422;2023-04-03T02:42:17;102915.50;;;0.27;100.00
64844;BME280;51310;52.198;5.422;2023-04-03T02:44:43;102925.78;;;0.33;100.00
64844;BME280;51310;52.198;5.422;2023-04-03T02:47:08;102925.63;;;0.37;100.00
64844;BME280;51310;52.198;5.422;2023-04-03T02:49:34;102923.56;;;0.50;100.00
64844;BME280;51310;52.198;5.422;2023-04-03T02:52:00;102931.19;;;0.40;100.00
64844;BME280;51310;52.198;5.422;2023-04-03T02:54:26;102936.69;;;0.28;100.00
64844;BME280;51310;52.198;5.422;2023-04-03T02:56:54;102941.91;;;0.24;100.00
64844;BME280;51310;52.198;5.422;2023-04-03T02:59:20;102949.28;;;0.12;100.00
64844;BME280;51310;52.198;5.422;2023-04-03T03:01:46;102943.28;;;0.02;100.00
64844;BME280;51310;52.198;5.422;2023-04-03T03:04:11;102953.41;;;0.12;100.00
64844;BME280;51310;52.198;5.422;2023-04-03T03:06:37;102951.28;;;0.09;100.00
64844;BME280;51310;52.198;5.422;2023-04-03T03:09:04;102957.41;;;0.06;100.00
64844;BME280;51310;52.198;5.422;2023-04-03T03:11:31;102955.44;;;0.09;100.00
64844;BME280;51310;52.198;5.422;2023-04-03T03:13:56;102953.81;;;0.09;100.00
64844;BME280;51310;52.198;5.422;2023-04-03T03:16:22;102964.88;;;0.19;100.00
64844;BME280;51310;52.198;5.422;2023-04-03T03:18:48;102964.75;;;0.14;100.00
64844;BME280;51310;52.198;5.422;2023-04-03T03:21:14;102961.56;;;0.05;100.00
64844;BME280;51310;52.198;5.422;2023-04-03T03:23:40;102964.38;;;0.07;100.00
64844;BME280;51310;52.198;5.422;2023-04-03T03:26:09;102959.03;;;-0.05;100.00
64844;BME280;51310;52.198;5.422;2023-04-03T03:28:37;102962.38;;;-0.10;100.00
64844;BME280;51310;52.198;5.422;2023-04-03T03:31:04;102964.25;;;-0.18;100.00
64844;BME280;51310;52.198;5.422;2023-04-03T03:33:30;102965.31;;;-0.22;100.00
64844;BME280;51310;52.198;5.422;2023-04-03T03:35:57;102959.19;;;-0.18;100.00
64844;BME280;51310;52.198;5.422;2023-04-03T03:38:23;102966.38;;;-0.06;100.00
64844;BME280;51310;52.198;5.422;2023-04-03T03:40:51;102970.63;;;-0.01;100.00
64844;BME280;51310;52.198;5.422;2023-04-03T03:43:18;102966.25;;;-0.12;100.00
64844;BME280;51310;52.198;5.422;2023-04-03T03:45:44;102962.25;;;-0.06;100.00
64844;BME280;51310;52.198;5.422;2023-04-03T03:48:11;102964.22;;;-0.09;100.00
64844;BME280;51310;52.198;5.422;2023-04-03T03:50:37;102965.72;;;-0.15;100.00
64844;BME280;51310;52.198;5.422;2023-04-03T03:53:03;102967.94;;;-0.07;100.00
64844;BME280;51310;52.198;5.422;2023-04-03T03:55:28;102978.25;;;-0.21;100.00
64844;BME280;51310;52.198;5.422;2023-04-03T03:57:54;102977.16;;;-0.27;100.00
64844;BME280;51310;52.198;5.422;2023-04-03T04:00:20;102967.19;;;-0.31;100.00
64844;BME280;51310;52.198;5.422;2023-04-03T04:02:46;102974.13;;;-0.30;100.00
64844;BME280;51310;52.198;5.422;2023-04-03T04:05:12;102976.09;;;-0.33;100.00
64844;BME280;51310;52.198;5.422;2023-04-03T04:07:38;102965.56;;;-0.30;100.00
64844;BME280;51310;52.198;5.422;2023-04-03T04:10:04;102978.91;;;-0.31;100.00
64844;BME280;51310;52.198;5.422;2023-04-03T04:12:30;102983.44;;;-0.34;100.00
64844;BME280;51310;52.198;5.422;2023-04-03T04:14:56;102981.72;;;-0.30;100.00
64844;BME280;51310;52.198;5.422;2023-04-03T04:17:21;102980.34;;;-0.18;100.00
64844;BME280;51310;52.198;5.422;2023-04-03T04:19:47;102986.75;;;-0.20;100.00
64844;BME280;51310;52.198;5.422;2023-04-03T04:22:13;102985.28;;;-0.14;100.00
64844;BME280;51310;52.198;5.422;2023-04-03T04:24:39;102986.75;;;-0.20;100.00
64844;BME280;51310;52.198;5.422;2023-04-03T04:27:04;102987.31;;;-0.36;100.00
64844;BME280;51310;52.198;5.422;2023-04-03T04:29:30;102988.09;;;-0.32;100.00
64844;BME280;51310;52.198;5.422;2023-04-03T04:32:02;102991.84;;;-0.30;100.00
64844;BME280;51310;52.198;5.422;2023-04-03T04:34:28;102985.16;;;-0.39;100.00
64844;BME280;51310;52.198;5.422;2023-04-03T04:36:54;102991.28;;;-0.33;100.00
64844;BME280;51310;52.198;5.422;2023-04-03T04:39:19;102992.47;;;-0.31;100.00
64844;BME280;51310;52.198;5.422;2023-04-03T04:41:45;102993.41;;;-0.40;100.00
64844;BME280;51310;52.198;5.422;2023-04-03T04:44:11;102992.38;;;-0.36;100.00
64844;BME280;51310;52.198;5.422;2023-04-03T04:46:36;102993.94;;;-0.37;100.00
64844;BME280;51310;52.198;5.422;2023-04-03T04:49:02;103003.53;;;-0.40;100.00
64844;BME280;51310;52.198;5.422;2023-04-03T04:51:28;103004.75;;;-0.38;100.00
64844;BME280;51310;52.198;5.422;2023-04-03T04:53:53;102998.63;;;-0.34;100.00
64844;BME280;51310;52.198;5.422;2023-04-03T04:56:19;103002.22;;;-0.38;100.00
64844;BME280;51310;52.198;5.422;2023-04-03T04:58:45;102996.34;;;-0.43;100.00
64844;BME280;51310;52.198;5.422;2023-04-03T05:01:11;103000.22;;;-0.45;100.00
64844;BME280;51310;52.198;5.422;2023-04-03T05:03:37;102999.28;;;-0.45;100.00
64844;BME280;51310;52.198;5.422;2023-04-03T05:06:03;103009.53;;;-0.49;100.00
64844;BME280;51310;52.198;5.422;2023-04-03T05:08:29;103005.00;;;-0.46;100.00
64844;BME280;51310;52.198;5.422;2023-04-03T05:10:55;103004.47;;;-0.49;100.00
64844;BME280;51310;52.198;5.422;2023-04-03T05:13:20;102998.75;;;-0.58;100.00
64844;BME280;51310;52.198;5.422;2023-04-03T05:15:47;103003.41;;;-0.55;100.00
64844;BME280;51310;52.198;5.422;2023-04-03T05:18:13;103007.13;;;-0.53;100.00
64844;BME280;51310;52.198;5.422;2023-04-03T05:20:38;103011.22;;;-0.64;100.00
64844;BME280;51310;52.198;5.422;2023-04-03T05:23:04;103011.75;;;-0.70;100.00
64844;BME280;51310;52.198;5.422;2023-04-03T05:25:30;103013.63;;;-0.50;100.00
64844;BME280;51310;52.198;5.422;2023-04-03T05:27:56;103011.63;;;-0.56;100.00
64844;BME280;51310;52.198;5.422;2023-04-03T05:30:22;103013.91;;;-0.48;100.00
64844;BME280;51310;52.198;5.422;2023-04-03T05:32:48;103020.16;;;-0.46;100.00
64844;BME280;51310;52.198;5.422;2023-04-03T05:35:14;103018.56;;;-0.46;100.00
64844;BME280;51310;52.198;5.422;2023-04-03T05:37:40;103023.38;;;-0.18;100.00
64844;BME280;51310;52.198;5.422;2023-04-03T05:40:07;103026.47;;;-0.15;100.00
64844;BME280;51310;52.198;5.422;2023-04-03T05:42:33;103026.34;;;-0.11;100.00
64844;BME280;51310;52.198;5.422;2023-04-03T05:44:58;103029.00;;;-0.15;100.00
64844;BME280;51310;52.198;5.422;2023-04-03T05:47:24;103030.59;;;-0.06;100.00
64844;BME280;51310;52.198;5.422;2023-04-03T05:49:50;103038.44;;;-0.04;100.00
64844;BME280;51310;52.198;5.422;2023-04-03T05:52:38;103041.63;;;-0.05;100.00
64844;BME280;51310;52.198;5.422;2023-04-03T05:55:06;103037.50;;;-0.14;100.00
64844;BME280;51310;52.198;5.422;2023-04-03T05:57:32;103044.28;;;-0.09;100.00
64844;BME280;51310;52.198;5.422;2023-04-03T05:59:58;103044.16;;;-0.05;100.00
64844;BME280;51310;52.198;5.422;2023-04-03T06:02:24;103052.28;;;-0.12;100.00
64844;BME280;51310;52.198;5.422;2023-04-03T06:04:52;103051.50;;;-0.16;100.00
64844;BME280;51310;52.198;5.422;2023-04-03T06:07:23;103049.91;;;-0.06;100.00
64844;BME280;51310;52.198;5.422;2023-04-03T06:09:50;103053.50;;;0.00;100.00
64844;BME280;51310;52.198;5.422;2023-04-03T06:12:19;103051.78;;;0.05;100.00
64844;BME280;51310;52.198;5.422;2023-04-03T06:14:45;103057.19;;;0.02;100.00
64844;BME280;51310;52.198;5.422;2023-04-03T06:17:11;103053.63;;;0.06;100.00
64844;BME280;51310;52.198;5.422;2023-04-03T06:19:37;103051.22;;;0.11;100.00
64844;BME280;51310;52.198;5.422;2023-04-03T06:22:03;103046.28;;;0.17;100.00
64844;BME280;51310;52.198;5.422;2023-04-03T06:24:30;103045.50;;;0.22;100.00
64844;BME280;51310;52.198;5.422;2023-04-03T06:26:57;103056.69;;;0.28;100.00
64844;BME280;51310;52.198;5.422;2023-04-03T06:29:23;103053.06;;;0.32;100.00
64844;BME280;51310;52.198;5.422;2023-04-03T06:31:50;103049.72;;;0.37;100.00
64844;BME280;51310;52.198;5.422;2023-04-03T06:34:17;103062.91;;;0.40;100.00
64844;BME280;51310;52.198;5.422;2023-04-03T06:36:44;103056.66;;;0.48;100.00
64844;BME280;51310;52.198;5.422;2023-04-03T06:39:17;103061.94;;;0.49;100.00
64844;BME280;51310;52.198;5.422;2023-04-03T06:41:43;103062.34;;;0.56;100.00
64844;BME280;51310;52.198;5.422;2023-04-03T06:44:10;103069.28;;;0.57;100.00
64844;BME280;51310;52.198;5.422;2023-04-03T06:46:38;103067.53;;;0.62;100.00
64844;BME280;51310;52.198;5.422;2023-04-03T06:49:04;103065.53;;;0.65;100.00
64844;BME280;51310;52.198;5.422;2023-04-03T06:51:33;103071.25;;;0.74;100.00
64844;BME280;51310;52.198;5.422;2023-04-03T06:53:59;103073.63;;;0.78;100.00
64844;BME280;51310;52.198;5.422;2023-04-03T06:56:27;103074.00;;;0.85;100.00
64844;BME280;51310;52.198;5.422;2023-04-03T06:58:55;103080.53;;;0.89;100.00
64844;BME280;51310;52.198;5.422;2023-04-03T07:01:25;103079.84;;;0.90;100.00
64844;BME280;51310;52.198;5.422;2023-04-03T07:03:52;103079.97;;;0.95;100.00
64844;BME280;51310;52.198;5.422;2023-04-03T07:06:18;103081.81;;;1.06;100.00
64844;BME280;51310;52.198;5.422;2023-04-03T07:08:45;103089.00;;;1.09;100.00
64844;BME280;51310;52.198;5.422;2023-04-03T07:11:12;103091.88;;;1.16;100.00
64844;BME280;51310;52.198;5.422;2023-04-03T07:13:39;103094.78;;;1.23;100.00
64844;BME280;51310;52.198;5.422;2023-04-03T07:16:05;103091.44;;;1.28;100.00
64844;BME280;51310;52.198;5.422;2023-04-03T07:18:33;103084.03;;;1.39;100.00
64844;BME280;51310;52.198;5.422;2023-04-03T07:20:59;103098.03;;;1.47;100.00
64844;BME280;51310;52.198;5.422;2023-04-03T07:23:25;103097.53;;;1.59;100.00
64844;BME280;51310;52.198;5.422;2023-04-03T07:25:52;103099.41;;;1.60;100.00
64844;BME280;51310;52.198;5.422;2023-04-03T07:28:19;103104.31;;;1.64;100.00
64844;BME280;51310;52.198;5.422;2023-04-03T07:30:52;103104.78;;;1.77;100.00
64844;BME280;51310;52.198;5.422;2023-04-03T07:33:21;103107.97;;;1.76;100.00
64844;BME280;51310;52.198;5.422;2023-04-03T07:35:47;103105.44;;;1.76;100.00
64844;BME280;51310;52.198;5.422;2023-04-03T07:38:14;103104.84;;;1.83;100.00
64844;BME280;51310;52.198;5.422;2023-04-03T07:40:45;103105.88;;;1.89;100.00
64844;BME280;51310;52.198;5.422;2023-04-03T07:43:11;103104.28;;;1.90;100.00
64844;BME280;51310;52.198;5.422;2023-04-03T07:45:37;103111.75;;;2.09;100.00
64844;BME280;51310;52.198;5.422;2023-04-03T07:48:03;103105.25;;;2.05;100.00
64844;BME280;51310;52.198;5.422;2023-04-03T07:50:29;103107.19;;;2.12;100.00
64844;BME280;51310;52.198;5.422;2023-04-03T07:52:56;103115.56;;;2.32;100.00
64844;BME280;51310;52.198;5.422;2023-04-03T07:55:23;103105.56;;;2.28;100.00
64844;BME280;51310;52.198;5.422;2023-04-03T07:57:49;103107.63;;;2.40;100.00
64844;BME280;51310;52.198;5.422;2023-04-03T08:00:16;103110.75;;;2.49;100.00
64844;BME280;51310;52.198;5.422;2023-04-03T08:02:43;103109.81;;;2.49;100.00
64844;BME280;51310;52.198;5.422;2023-04-03T08:05:10;103109.78;;;2.64;100.00
64844;BME280;51310;52.198;5.422;2023-04-03T08:07:38;103108.75;;;2.73;100.00
64844;BME280;51310;52.198;5.422;2023-04-03T08:10:04;103118.59;;;2.66;100.00
64844;BME280;51310;52.198;5.422;2023-04-03T08:12:30;103113.72;;;2.83;100.00
64844;BME280;51310;52.198;5.422;2023-04-03T08:14:59;103118.88;;;2.88;100.00
64844;BME280;51310;52.198;5.422;2023-04-03T08:17:25;103113.19;;;2.95;100.00
64844;BME280;51310;52.198;5.422;2023-04-03T08:19:51;103112.91;;;2.94;100.00
64844;BME280;51310;52.198;5.422;2023-04-03T08:22:17;103118.34;;;3.01;100.00
64844;BME280;51310;52.198;5.422;2023-04-03T08:24:43;103121.31;;;3.19;100.00
64844;BME280;51310;52.198;5.422;2023-04-03T08:27:09;103126.19;;;3.18;100.00
64844;BME280;51310;52.198;5.422;2023-04-03T08:29:35;103128.16;;;3.30;99.92
64844;BME280;51310;52.198;5.422;2023-04-03T08:32:04;103135.56;;;3.28;91.49
64844;BME280;51310;52.198;5.422;2023-04-03T08:34:30;103134.56;;;3.22;88.93
64844;BME280;51310;52.198;5.422;2023-04-03T08:37:01;103136.41;;;3.44;93.04
64844;BME280;51310;52.198;5.422;2023-04-03T08:39:27;103140.41;;;3.48;79.49
64844;BME280;51310;52.198;5.422;2023-04-03T08:41:57;103133.31;;;3.57;76.93
64844;BME280;51310;52.198;5.422;2023-04-03T08:44:59;103136.31;;;3.81;78.01
64844;BME280;51310;52.198;5.422;2023-04-03T08:50:11;103130.88;;;3.95;68.67
64844;BME280;51310;52.198;5.422;2023-04-03T08:52:58;103143.22;;;4.03;66.14
64844;BME280;51310;52.198;5.422;2023-04-03T08:55:34;103144.16;;;4.03;65.07
64844;BME280;51310;52.198;5.422;2023-04-03T08:58:11;103146.84;;;4.20;68.57
64844;BME280;51310;52.198;5.422;2023-04-03T09:00:45;103143.19;;;4.29;64.77
64844;BME280;51310;52.198;5.422;2023-04-03T09:03:18;103132.84;;;4.45;60.89
64844;BME280;51310;52.198;5.422;2023-04-03T09:11:26;103142.84;;;4.49;52.43
64844;BME280;51310;52.198;5.422;2023-04-03T09:14:18;103143.16;;;4.62;49.11
64844;BME280;51310;52.198;5.422;2023-04-03T09:16:59;103143.50;;;4.80;47.78
64844;BME280;51310;52.198;5.422;2023-04-03T09:22:24;103146.03;;;4.75;45.11
64844;BME280;51310;52.198;5.422;2023-04-03T09:25:01;103138.22;;;4.84;43.82
64844;BME280;51310;52.198;5.422;2023-04-03T09:27:27;103141.25;;;4.93;45.12
64844;BME280;51310;52.198;5.422;2023-04-03T09:29:56;103145.19;;;4.91;41.24
64844;BME280;51310;52.198;5.422;2023-04-03T09:32:30;103135.72;;;5.07;41.49
64844;BME280;51310;52.198;5.422;2023-04-03T09:35:27;103139.22;;;5.07;39.97
64844;BME280;51310;52.198;5.422;2023-04-03T09:38:14;103135.06;;;5.08;40.47
64844;BME280;51310;52.198;5.422;2023-04-03T09:40:48;103132.59;;;5.36;40.75
64844;BME280;51310;52.198;5.422;2023-04-03T09:43:30;103124.22;;;5.37;41.01
64844;BME280;51310;52.198;5.422;2023-04-03T09:46:32;103128.44;;;5.42;38.46
64844;BME280;51310;52.198;5.422;2023-04-03T09:49:04;103128.88;;;5.40;39.20
64844;BME280;51310;52.198;5.422;2023-04-03T09:51:31;103120.72;;;5.25;38.96
64844;BME280;51310;52.198;5.422;2023-04-03T09:53:58;103121.13;;;5.11;38.85
64844;BME280;51310;52.198;5.422;2023-04-03T09:56:28;103116.09;;;5.40;40.47
64844;BME280;51310;52.198;5.422;2023-04-03T10:01:35;103110.56;;;5.53;38.46
64844;BME280;51310;52.198;5.422;2023-04-03T10:04:08;103108.97;;;5.71;40.04
64844;BME280;51310;52.198;5.422;2023-04-03T10:06:39;103108.75;;;5.75;40.00
64844;BME280;51310;52.198;5.422;2023-04-03T10:09:23;103105.69;;;5.72;40.65
64844;BME280;51310;52.198;5.422;2023-04-03T10:12:10;103106.41;;;5.71;39.64
64844;BME280;51310;52.198;5.422;2023-04-03T10:14:59;103099.66;;;5.66;39.78
64844;BME280;51310;52.198;5.422;2023-04-03T10:23:26;103090.88;;;6.03;40.70
64844;BME280;51310;52.198;5.422;2023-04-03T10:26:37;103087.38;;;5.86;39.90
64844;BME280;51310;52.198;5.422;2023-04-03T10:34:35;103074.84;;;6.10;40.10
64844;BME280;51310;52.198;5.422;2023-04-03T10:37:24;103058.78;;;6.11;40.70
64844;BME280;51310;52.198;5.422;2023-04-03T10:43:12;103053.88;;;6.35;39.40
64844;BME280;51310;52.198;5.422;2023-04-03T10:46:02;103054.03;;;6.48;37.36
64844;BME280;51310;52.198;5.422;2023-04-03T10:48:38;103052.63;;;6.50;37.60
64844;BME280;51310;52.198;5.422;2023-04-03T10:57:04;103043.44;;;6.80;37.38
64844;BME280;51310;52.198;5.422;2023-04-03T11:02:31;103033.25;;;6.69;38.17
64844;BME280;51310;52.198;5.422;2023-04-03T11:05:32;103045.56;;;6.71;38.61
64844;BME280;51310;52.198;5.422;2023-04-03T11:08:09;103030.94;;;6.76;39.24
64844;BME280;51310;52.198;5.422;2023-04-03T11:13:13;103034.22;;;6.64;38.68
64844;BME280;51310;52.198;5.422;2023-04-03T11:15:43;103037.16;;;6.78;39.37
64844;BME280;51310;52.198;5.422;2023-04-03T11:18:17;103035.25;;;6.88;39.07
64844;BME280;51310;52.198;5.422;2023-04-03T11:21:00;103032.69;;;6.88;38.77
64844;BME280;51310;52.198;5.422;2023-04-03T11:23:36;103037.56;;;6.92;38.49
64844;BME280;51310;52.198;5.422;2023-04-03T11:26:21;103039.16;;;6.97;39.15
64844;BME280;51310;52.198;5.422;2023-04-03T11:29:11;103037.81;;;6.94;38.81
64844;BME280;51310;52.198;5.422;2023-04-03T11:34:42;103033.19;;;6.86;39.68
64844;BME280;51310;52.198;5.422;2023-04-03T11:37:33;103030.88;;;7.23;39.39
64844;BME280;51310;52.198;5.422;2023-04-03T11:43:07;103015.97;;;7.26;38.64
64844;BME280;51310;52.198;5.422;2023-04-03T11:45:50;103029.94;;;7.22;38.39
64844;BME280;51310;52.198;5.422;2023-04-03T11:50:44;103018.81;;;7.16;38.50
64844;BME280;51310;52.198;5.422;2023-04-03T11:58:40;103027.22;;;7.09;39.42
64844;BME280;51310;52.198;5.422;2023-04-03T12:01:53;103022.38;;;7.05;39.14
64844;BME280;51310;52.198;5.422;2023-04-03T12:04:23;103015.41;;;7.34;39.91
64844;BME280;51310;52.198;5.422;2023-04-03T12:07:19;103009.09;;;7.37;39.82
64844;BME280;51310;52.198;5.422;2023-04-03T12:12:30;103001.03;;;7.58;38.32
64844;BME280;51310;52.198;5.422;2023-04-03T12:15:22;102995.91;;;7.58;37.91
64844;BME280;51310;52.198;5.422;2023-04-03T12:17:49;102996.94;;;7.42;37.54
64844;BME280;51310;52.198;5.422;2023-04-03T12:20:52;102993.63;;;7.49;37.98
64844;BME280;51310;52.198;5.422;2023-04-03T12:23:34;102983.72;;;7.39;38.27
64844;BME280;51310;52.198;5.422;2023-04-03T12:26:31;102987.84;;;7.44;39.03
64844;BME280;51310;52.198;5.422;2023-04-03T12:28:58;102976.91;;;7.45;38.49
64844;BME280;51310;52.198;5.422;2023-04-03T12:31:46;102961.25;;;7.49;38.56
64844;BME280;51310;52.198;5.422;2023-04-03T12:51:05;102945.28;;;7.39;38.40
64844;BME280;51310;52.198;5.422;2023-04-03T12:53:35;102936.72;;;7.57;39.14
64844;BME280;51310;52.198;5.422;2023-04-03T12:58:55;102931.72;;;7.46;37.69
64844;BME280;51310;52.198;5.422;2023-04-03T13:01:25;102930.31;;;7.48;37.15
64844;BME280;51310;52.198;5.422;2023-04-03T13:03:57;102930.53;;;7.73;38.18
64844;BME280;51310;52.198;5.422;2023-04-03T13:06:37;102934.97;;;7.69;37.28
64844;BME280;51310;52.198;5.422;2023-04-03T13:09:04;102924.53;;;7.67;38.20
64844;BME280;51310;52.198;5.422;2023-04-03T13:11:36;102913.91;;;7.77;38.33
64844;BME280;51310;52.198;5.422;2023-04-03T13:14:14;102915.00;;;7.85;39.23
64844;BME280;51310;52.198;5.422;2023-04-03T13:16:41;102912.25;;;7.77;38.93
64844;BME280;51310;52.198;5.422;2023-04-03T13:19:17;102912.88;;;8.06;39.42
64844;BME280;51310;52.198;5.422;2023-04-03T13:21:43;102918.63;;;7.92;38.74
64844;BME280;51310;52.198;5.422;2023-04-03T13:24:10;102909.34;;;7.69;38.95
64844;BME280;51310;52.198;5.422;2023-04-03T13:26:37;102903.34;;;7.87;40.11
64844;BME280;51310;52.198;5.422;2023-04-03T13:29:17;102905.72;;;7.79;39.61
64844;BME280;51310;52.198;5.422;2023-04-03T13:31:45;102903.19;;;7.98;39.41
64844;BME280;51310;52.198;5.422;2023-04-03T13:34:17;102914.00;;;7.90;38.75
64844;BME280;51310;52.198;5.422;2023-04-03T13:36:59;102902.59;;;7.88;40.09
64844;BME280;51310;52.198;5.422;2023-04-03T13:42:27;102920.63;;;7.82;39.11
64844;BME280;51310;52.198;5.422;2023-04-03T13:45:25;102904.81;;;7.79;40.08
64844;BME280;51310;52.198;5.422;2023-04-03T13:48:18;102910.09;;;8.05;39.70
64844;BME280;51310;52.198;5.422;2023-04-03T13:51:02;102905.97;;;7.99;40.53
64844;BME280;51310;52.198;5.422;2023-04-03T13:53:33;102918.31;;;8.02;39.03
64844;BME280;51310;52.198;5.422;2023-04-03T13:56:16;102904.03;;;7.86;39.38
64844;BME280;51310;52.198;5.422;2023-04-03T14:01:23;102904.91;;;7.92;39.36
64844;BME280;51310;52.198;5.422;2023-04-03T14:04:00;102901.19;;;7.71;39.31
64844;BME280;51310;52.198;5.422;2023-04-03T14:06:27;102894.03;;;7.63;39.05
64844;BME280;51310;52.198;5.422;2023-04-03T14:08:53;102910.09;;;8.05;40.77
64844;BME280;51310;52.198;5.422;2023-04-03T14:11:24;102896.22;;;7.97;39.77
64844;BME280;51310;52.198;5.422;2023-04-03T14:13:53;102899.13;;;7.87;40.35
64844;BME280;51310;52.198;5.422;2023-04-03T14:16:25;102890.72;;;8.07;40.83
64844;BME280;51310;52.198;5.422;2023-04-03T14:18:53;102890.00;;;8.08;41.38
64844;BME280;51310;52.198;5.422;2023-04-03T14:21:21;102883.91;;;8.13;41.48
64844;BME280;51310;52.198;5.422;2023-04-03T14:23:48;102882.31;;;8.08;41.55
64844;BME280;51310;52.198;5.422;2023-04-03T14:26:18;102873.44;;;7.93;41.20
64844;BME280;51310;52.198;5.422;2023-04-03T14:28:49;102873.34;;;8.17;41.71
64844;BME280;51310;52.198;5.422;2023-04-03T14:31:16;102868.16;;;8.04;42.48
64844;BME280;51310;52.198;5.422;2023-04-03T14:33:44;102861.50;;;8.12;41.04
64844;BME280;51310;52.198;5.422;2023-04-03T14:36:23;102863.66;;;8.09;41.12